BBC Emerald — V2FZ2 — position and weather

sailwx.info

Track history (hours):
 
Tides and Currents Weather Stations Pressure Air Temp Water Temp Dewpoint Dewpoint Depression Visibility Wind Speed Wind Dir Waves Ship Positions

BBC Emerald

Last reported at 2018-Feb-18 21:04 UTC. Time now 2018-Feb-25 00:09 UTC.
Position N 34°39' E 130°11'.

Length 153 m; draft 7.5 m.

Type: Ship. MMSI: 305857000.

Date/timePositionNaut miles runAvg speedWind from/ knotsBaromVisibWave heightAir tempDewpointWater temp
2018-Feb-18 21:04N 34°39' E 130°11'215.4
2018-Feb-18 20:58N 34°38' E 130°12'715.6
2018-Feb-18 20:30N 34°32' E 130°18'815.7
2018-Feb-18 20:00N 34°26' E 130°24'815.9
2018-Feb-18 19:30N 34°20' E 130°30'815.9
2018-Feb-18 19:00N 34°14' E 130°37'816.1
2018-Feb-18 18:29N 34°08' E 130°43'816.0
2018-Feb-18 18:00N 34°02' E 130°50'510.9
2018-Feb-18 17:31N 33°57' E 130°52'4 7.2
2018-Feb-18 17:01N 33°56' E 130°56'510.9
2018-Feb-18 16:30N 33°57' E 131°03'611.6
2018-Feb-18 16:00N 33°54' E 131°08'815.9
2018-Feb-18 15:30N 33°51' E 131°17'816.5
2018-Feb-18 15:00N 33°49' E 131°27'816.5
2018-Feb-18 14:30N 33°48' E 131°37'815.8
2018-Feb-18 14:00N 33°43' E 131°45'917.2
2018-Feb-18 13:30N 33°36' E 131°50'917.3
2018-Feb-18 13:00N 33°28' E 131°54'918.1
2018-Feb-18 12:30N 33°20' E 131°59'918.0
2018-Feb-18 12:00N 33°13' E 132°06'917.9
2018-Feb-18 11:30N 33°06' E 132°12'1017.8
2018-Feb-18 10:58N 32°58' E 132°18'21515.0
2018-Feb-17 20:35N 33°38' E 136°31'9714.4
2018-Feb-17 13:50N 34°18' E 138°18'410.4
2018-Feb-17 13:26N 34°20' E 138°22'511.0
2018-Feb-17 12:59N 34°22' E 138°28'510.3
2018-Feb-17 12:28N 34°24' E 138°34'5 9.9
2018-Feb-17 12:00N 34°26' E 138°39'610.5
2018-Feb-17 11:28N 34°28' E 138°45'510.9
2018-Feb-17 11:00N 34°31' E 138°51'611.4
2018-Feb-17 10:30N 34°33' E 138°57'711.8
2018-Feb-17 09:56N 34°37' E 139°03'614.5
2018-Feb-17 09:30N 34°42' E 139°09'713.8
2018-Feb-17 09:00N 34°47' E 139°14'713.7
2018-Feb-17 08:29N 34°51' E 139°21'713.4
2018-Feb-17 07:59N 34°55' E 139°27'613.2
2018-Feb-17 07:30N 34°59' E 139°33'815.0
2018-Feb-17 07:01N 35°04' E 139°40'714.6
2018-Feb-17 06:30N 35°10' E 139°45'611.6
2018-Feb-17 06:01N 35°16' E 139°46'612.9
2018-Feb-17 05:30N 35°22' E 139°42'510.5
2018-Feb-17 05:00N 35°27' E 139°41'1 1.6
2018-Feb-17 04:29N 35°27' E 139°40'0 0.0
2018-Feb-17 03:59N 35°27' E 139°40'0 0.0
2018-Feb-17 03:29N 35°27' E 139°40'0 0.0
2018-Feb-17 02:59N 35°27' E 139°40'0 0.0
2018-Feb-17 02:29N 35°27' E 139°40'0 0.0
2018-Feb-17 01:59N 35°27' E 139°40'0 0.0
2018-Feb-17 01:29N 35°27' E 139°40'0 0.0
2018-Feb-17 00:59N 35°27' E 139°40'0 0.0
2018-Feb-17 00:29N 35°27' E 139°40'0 0.0
2018-Feb-16 23:59N 35°27' E 139°40'0 0.0
2018-Feb-16 23:29N 35°27' E 139°40'0 0.0
2018-Feb-16 22:59N 35°27' E 139°40'0 0.0
2018-Feb-16 22:26N 35°27' E 139°40'0 0.0
2018-Feb-16 21:59N 35°27' E 139°40'0 0.0
2018-Feb-16 21:29N 35°27' E 139°40'0 0.0
2018-Feb-16 20:59N 35°27' E 139°40'0 0.0
2018-Feb-16 20:29N 35°27' E 139°40'0 0.0
2018-Feb-16 19:59N 35°27' E 139°40'0 0.0
2018-Feb-16 19:29N 35°27' E 139°40'0 0.0
2018-Feb-16 18:59N 35°27' E 139°40'0 0.0
2018-Feb-16 18:29N 35°27' E 139°40'0 0.0
2018-Feb-16 17:59N 35°27' E 139°40'0 0.0
2018-Feb-16 17:29N 35°27' E 139°40'0 0.0
2018-Feb-16 16:59N 35°27' E 139°40'0 0.0
2018-Feb-16 16:29N 35°27' E 139°40'0 0.0
2018-Feb-16 15:59N 35°27' E 139°40'0 0.0
2018-Feb-16 15:29N 35°27' E 139°40'0 0.0
2018-Feb-16 14:59N 35°27' E 139°40'0 0.0
2018-Feb-16 14:29N 35°27' E 139°40'0 0.0
2018-Feb-16 13:59N 35°27' E 139°40'0 0.0
2018-Feb-16 13:29N 35°27' E 139°40'0 0.0
2018-Feb-16 12:59N 35°27' E 139°40'0 0.0
2018-Feb-16 12:29N 35°27' E 139°40'0 0.0
2018-Feb-16 11:59N 35°27' E 139°40'0 0.0
2018-Feb-16 11:29N 35°27' E 139°40'0 0.0
2018-Feb-16 10:59N 35°27' E 139°40'0 0.0
2018-Feb-16 10:29N 35°27' E 139°40'0 0.0
2018-Feb-16 09:59N 35°27' E 139°40'0 0.0
2018-Feb-16 09:29N 35°27' E 139°40'0 0.0
2018-Feb-16 09:01N 35°27' E 139°40'1 1.6
2018-Feb-16 08:30N 35°27' E 139°41'4 8.3
2018-Feb-16 08:00N 35°23' E 139°43'612.4
2018-Feb-16 07:30N 35°17' E 139°45'612.8
2018-Feb-16 07:00N 35°11' E 139°47'4 7.1
2018-Feb-16 06:30N 35°08' E 139°45'5 9.2
2018-Feb-16 06:00N 35°05' E 139°41'510.9
2018-Feb-16 05:30N 35°01' E 139°36'611.6
2018-Feb-16 05:01N 34°57' E 139°31'815.5
2018-Feb-16 04:30N 34°52' E 139°24'918.0
2018-Feb-16 03:59N 34°45' E 139°16'817.0
2018-Feb-16 03:30N 34°40' E 139°09'917.2
2018-Feb-16 03:00N 34°34' E 139°02'816.2
2018-Feb-16 02:30N 34°30' E 138°53'816.2
2018-Feb-16 02:00N 34°26' E 138°44'916.4
2018-Feb-16 01:28N 34°22' E 138°34'816.8
2018-Feb-16 01:00N 34°20' E 138°26'816.5
2018-Feb-16 00:30N 34°16' E 138°17'816.1
2018-Feb-16 00:00N 34°13' E 138°08'715.4
2018-Feb-15 23:30N 34°10' E 137°59'815.8
2018-Feb-15 23:00N 34°07' E 137°50'915.8
2018-Feb-15 22:27N 34°03' E 137°41'12513.8
2018-Feb-15 13:23N 33°36' E 135°14'616.3
2018-Feb-15 13:00N 33°41' E 135°09'816.4
2018-Feb-15 12:30N 33°47' E 135°03'816.3
2018-Feb-15 12:00N 33°54' E 134°58'816.1
2018-Feb-15 11:31N 34°02' E 134°58'816.0
2018-Feb-15 11:00N 34°10' E 134°58'612.9
2018-Feb-15 10:31N 34°16' E 134°58'815.0
2018-Feb-15 10:00N 34°23' E 135°01'815.8
2018-Feb-15 09:30N 34°29' E 135°08'815.5
2018-Feb-15 09:00N 34°34' E 135°15'713.2
2018-Feb-15 08:31N 34°41' E 135°15'1 2.7
2018-Feb-15 07:58N 34°42' E 135°16'0 0.0
2018-Feb-15 07:28N 34°42' E 135°16'0 0.0
2018-Feb-15 06:58N 34°42' E 135°16'0 0.0
2018-Feb-15 06:25N 34°42' E 135°16'0 0.0
2018-Feb-15 05:58N 34°42' E 135°16'0 0.0
2018-Feb-15 05:28N 34°42' E 135°16'0 0.0
2018-Feb-15 04:58N 34°42' E 135°16'0 0.0
2018-Feb-15 04:28N 34°42' E 135°16'0 0.0
2018-Feb-15 03:55N 34°42' E 135°16'0 0.0
2018-Feb-15 03:25N 34°42' E 135°16'0 0.0
2018-Feb-15 02:58N 34°42' E 135°16'0 0.0
2018-Feb-15 02:25N 34°42' E 135°16'0 0.0
2018-Feb-15 01:58N 34°42' E 135°16'0 0.0
2018-Feb-15 01:25N 34°42' E 135°16'0 0.0
2018-Feb-15 00:58N 34°42' E 135°16'0 0.0
2018-Feb-15 00:28N 34°42' E 135°16'0 0.0
2018-Feb-14 23:58N 34°42' E 135°16'0 0.0
2018-Feb-14 23:28N 34°42' E 135°16'0 0.0
2018-Feb-14 22:58N 34°42' E 135°16'0 0.0
2018-Feb-14 22:28N 34°42' E 135°16'0 0.0
2018-Feb-14 21:58N 34°42' E 135°16'0 0.0
2018-Feb-14 21:28N 34°42' E 135°16'0 0.0
2018-Feb-14 20:55N 34°42' E 135°16'0 0.0
2018-Feb-14 20:25N 34°42' E 135°16'0 0.0
2018-Feb-14 19:58N 34°42' E 135°16'0 0.0
2018-Feb-14 19:25N 34°42' E 135°16'0 0.0
2018-Feb-14 18:55N 34°42' E 135°16'0 0.0
2018-Feb-14 18:28N 34°42' E 135°16'0 0.0
2018-Feb-14 17:58N 34°42' E 135°16'0 0.0
2018-Feb-14 17:28N 34°42' E 135°16'0 0.0
2018-Feb-14 16:58N 34°42' E 135°16'0 0.0
2018-Feb-14 16:28N 34°42' E 135°16'0 0.0
2018-Feb-14 15:58N 34°42' E 135°16'0 0.0
2018-Feb-14 15:28N 34°42' E 135°16'0 0.0
2018-Feb-14 14:58N 34°42' E 135°16'0 0.0
2018-Feb-14 14:28N 34°42' E 135°16'0 0.0
2018-Feb-14 13:58N 34°42' E 135°16'0 0.0
2018-Feb-14 13:28N 34°42' E 135°16'0 0.0
2018-Feb-14 12:58N 34°42' E 135°16'0 0.0
2018-Feb-14 12:28N 34°42' E 135°16'0 0.0
2018-Feb-14 11:58N 34°42' E 135°16'0 0.0
2018-Feb-14 11:28N 34°42' E 135°16'0 0.0
2018-Feb-14 10:58N 34°42' E 135°16'0 0.0
2018-Feb-14 10:28N 34°42' E 135°16'0 0.0
2018-Feb-14 09:58N 34°42' E 135°16'0 0.0
2018-Feb-14 09:28N 34°42' E 135°16'0 0.0
2018-Feb-14 08:58N 34°42' E 135°16'0 0.0
2018-Feb-14 08:28N 34°42' E 135°16'0 0.0
2018-Feb-14 07:55N 34°42' E 135°16'0 0.0
2018-Feb-14 07:28N 34°42' E 135°16'0 0.0
2018-Feb-14 06:58N 34°42' E 135°16'0 0.0
2018-Feb-14 06:25N 34°42' E 135°16'0 0.0
2018-Feb-14 05:58N 34°42' E 135°16'0 0.0
2018-Feb-14 05:28N 34°42' E 135°16'0 0.0
2018-Feb-14 04:58N 34°42' E 135°16'0 0.0
2018-Feb-14 04:28N 34°42' E 135°16'0 0.0
2018-Feb-14 03:58N 34°42' E 135°16'0 0.0
2018-Feb-14 03:28N 34°42' E 135°16'0 0.0
2018-Feb-14 02:58N 34°42' E 135°16'0 0.0
2018-Feb-14 02:25N 34°42' E 135°16'0 0.0
2018-Feb-14 01:58N 34°42' E 135°16'0 0.0
2018-Feb-14 01:25N 34°42' E 135°16'0 0.0
2018-Feb-14 00:55N 34°42' E 135°16'0 0.0
2018-Feb-14 00:25N 34°42' E 135°16'0 0.0
2018-Feb-13 23:58N 34°42' E 135°16'0 0.0
2018-Feb-13 23:28N 34°42' E 135°16'0 0.0
2018-Feb-13 22:58N 34°42' E 135°16'0 0.0
2018-Feb-13 22:28N 34°42' E 135°16'0 0.0
2018-Feb-13 21:58N 34°42' E 135°16'0 0.0
2018-Feb-13 21:19N 34°42' E 135°16'0 0.0
2018-Feb-13 20:55N 34°42' E 135°16'0 0.0
2018-Feb-13 20:28N 34°42' E 135°16'0 0.0
2018-Feb-13 19:58N 34°42' E 135°16'0 0.0
2018-Feb-13 19:25N 34°42' E 135°16'0 0.0
2018-Feb-13 18:58N 34°42' E 135°16'0 0.0
2018-Feb-13 18:28N 34°42' E 135°16'0 0.0
2018-Feb-13 17:58N 34°42' E 135°16'0 0.0
2018-Feb-13 17:25N 34°42' E 135°16'0 0.0
2018-Feb-13 16:58N 34°42' E 135°16'0 0.0
2018-Feb-13 16:25N 34°42' E 135°16'0 0.0
2018-Feb-13 15:58N 34°42' E 135°16'0 0.0
2018-Feb-13 15:25N 34°42' E 135°16'0 0.0
2018-Feb-13 14:58N 34°42' E 135°16'0 0.0
2018-Feb-13 14:28N 34°42' E 135°16'0 0.0
2018-Feb-13 13:58N 34°42' E 135°16'0 0.0
2018-Feb-13 13:28N 34°42' E 135°16'0 0.0
2018-Feb-13 12:58N 34°42' E 135°16'0 0.0
2018-Feb-13 12:25N 34°42' E 135°16'0 0.0
2018-Feb-13 11:55N 34°42' E 135°16'0 0.0
2018-Feb-13 11:28N 34°42' E 135°16'0 0.0
2018-Feb-13 10:58N 34°42' E 135°16'0 0.0
2018-Feb-13 10:28N 34°42' E 135°16'0 0.0
2018-Feb-13 09:58N 34°42' E 135°16'0 0.0
2018-Feb-13 09:28N 34°42' E 135°16'0 0.0
2018-Feb-13 08:58N 34°42' E 135°16'0 0.0
2018-Feb-13 08:28N 34°42' E 135°16'0 0.0
2018-Feb-13 07:58N 34°42' E 135°16'0 0.0
2018-Feb-13 07:25N 34°42' E 135°16'0 0.0
2018-Feb-13 06:58N 34°42' E 135°16'0 0.0
2018-Feb-13 06:28N 34°42' E 135°16'0 0.0
2018-Feb-13 05:55N 34°42' E 135°16'0 0.0
2018-Feb-13 05:28N 34°42' E 135°16'0 0.0
2018-Feb-13 04:58N 34°42' E 135°16'0 0.0
2018-Feb-13 04:28N 34°42' E 135°16'0 0.0
2018-Feb-13 03:58N 34°42' E 135°16'0 0.0
2018-Feb-13 03:28N 34°42' E 135°16'0 0.0
2018-Feb-13 02:58N 34°42' E 135°16'0 0.0
2018-Feb-13 02:28N 34°42' E 135°16'0 0.0
2018-Feb-13 01:58N 34°42' E 135°16'0 0.0
2018-Feb-13 01:28N 34°42' E 135°16'0 0.0
2018-Feb-13 00:55N 34°42' E 135°16'0 0.0
2018-Feb-13 00:28N 34°42' E 135°16'0 0.0
2018-Feb-12 23:58N 34°42' E 135°16'0 0.0
2018-Feb-12 23:25N 34°42' E 135°16'0 0.0
2018-Feb-12 22:58N 34°42' E 135°16'0 0.0
2018-Feb-12 22:28N 34°42' E 135°16'0 0.0
2018-Feb-12 21:58N 34°42' E 135°16'0 0.0
2018-Feb-12 21:25N 34°42' E 135°16'0 0.0
2018-Feb-12 20:58N 34°42' E 135°16'0 0.0
2018-Feb-12 20:28N 34°42' E 135°16'0 0.0
2018-Feb-12 19:55N 34°42' E 135°16'0 0.0
2018-Feb-12 19:28N 34°42' E 135°16'0 0.0
2018-Feb-12 18:58N 34°42' E 135°16'0 0.0
2018-Feb-12 18:28N 34°42' E 135°16'0 0.0
2018-Feb-12 17:58N 34°42' E 135°16'0 0.0
2018-Feb-12 17:28N 34°42' E 135°16'0 0.0
2018-Feb-12 16:58N 34°42' E 135°16'0 0.0
2018-Feb-12 16:28N 34°42' E 135°16'0 0.0
2018-Feb-12 15:58N 34°42' E 135°16'0 0.0
2018-Feb-12 15:16N 34°42' E 135°16'0 0.0
2018-Feb-12 14:58N 34°42' E 135°16'0 0.0
2018-Feb-12 14:28N 34°42' E 135°16'0 0.0
2018-Feb-12 13:58N 34°42' E 135°16'0 0.0
2018-Feb-12 13:28N 34°42' E 135°16'0 0.0
2018-Feb-12 12:58N 34°42' E 135°16'0 0.0
2018-Feb-12 12:28N 34°42' E 135°16'0 0.0
2018-Feb-12 11:58N 34°42' E 135°16'0 0.0
2018-Feb-12 11:28N 34°42' E 135°16'0 0.0
2018-Feb-12 10:58N 34°42' E 135°16'0 0.0
2018-Feb-12 10:28N 34°42' E 135°16'0 0.0
2018-Feb-12 09:58N 34°42' E 135°16'0 0.0
2018-Feb-12 09:28N 34°42' E 135°16'0 0.0
2018-Feb-12 08:58N 34°42' E 135°16'0 0.0
2018-Feb-12 08:28N 34°42' E 135°16'0 0.0
2018-Feb-12 07:58N 34°42' E 135°16'0 0.0
2018-Feb-12 07:28N 34°42' E 135°16'0 0.0
2018-Feb-12 06:58N 34°42' E 135°16'0 0.0
2018-Feb-12 06:28N 34°42' E 135°16'0 0.0
2018-Feb-12 05:58N 34°42' E 135°16'0 0.0
2018-Feb-12 05:25N 34°42' E 135°16'0 0.0
2018-Feb-12 04:58N 34°42' E 135°16'0 0.0
2018-Feb-12 04:28N 34°42' E 135°16'0 0.0
2018-Feb-12 03:58N 34°42' E 135°16'0 0.2
2018-Feb-12 03:30N 34°42' E 135°16'2 3.8
2018-Feb-12 03:00N 34°40' E 135°15'4 8.1
2018-Feb-12 02:30N 34°36' E 135°17'4 8.5
2018-Feb-12 02:01N 34°32' E 135°15'611.3
2018-Feb-12 01:31N 34°28' E 135°10'714.7
2018-Feb-12 01:01N 34°23' E 135°04'714.3
2018-Feb-12 00:31N 34°17' E 134°59'713.8
2018-Feb-12 00:01N 34°10' E 135°00'611.1
2018-Feb-11 23:30N 34°05' E 134°58'713.8
2018-Feb-11 23:00N 33°58' E 134°55'713.8
2018-Feb-11 22:30N 33°52' E 134°53'1413.7
2018-Feb-11 21:30N 33°39' E 134°46'714.1
2018-Feb-11 21:00N 33°33' E 134°42'  
Track history (hours):
 
Tides and Currents Weather Stations Pressure Air Temp Water Temp Dewpoint Dewpoint Depression Visibility Wind Speed Wind Dir Waves Ship Positions

BBC Emerald

Last reported at 2018-Feb-18 21:04 UTC. Time now 2018-Feb-25 00:09 UTC.
Position N 34°39' E 130°11'.

Length 153 m; draft 7.5 m.

Type: Ship. MMSI: 305857000.

Date/timePositionNaut miles runAvg speedWind from/ knotsBaromVisibWave heightAir tempDewpointWater temp
2018-Feb-18 21:04N 34°39' E 130°11'215.4
2018-Feb-18 20:58N 34°38' E 130°12'715.6
2018-Feb-18 20:30N 34°32' E 130°18'815.7
2018-Feb-18 20:00N 34°26' E 130°24'815.9
2018-Feb-18 19:30N 34°20' E 130°30'815.9
2018-Feb-18 19:00N 34°14' E 130°37'816.1
2018-Feb-18 18:29N 34°08' E 130°43'816.0
2018-Feb-18 18:00N 34°02' E 130°50'510.9
2018-Feb-18 17:31N 33°57' E 130°52'4 7.2
2018-Feb-18 17:01N 33°56' E 130°56'510.9
2018-Feb-18 16:30N 33°57' E 131°03'611.6
2018-Feb-18 16:00N 33°54' E 131°08'815.9
2018-Feb-18 15:30N 33°51' E 131°17'816.5
2018-Feb-18 15:00N 33°49' E 131°27'816.5
2018-Feb-18 14:30N 33°48' E 131°37'815.8
2018-Feb-18 14:00N 33°43' E 131°45'917.2
2018-Feb-18 13:30N 33°36' E 131°50'917.3
2018-Feb-18 13:00N 33°28' E 131°54'918.1
2018-Feb-18 12:30N 33°20' E 131°59'918.0
2018-Feb-18 12:00N 33°13' E 132°06'917.9
2018-Feb-18 11:30N 33°06' E 132°12'1017.8
2018-Feb-18 10:58N 32°58' E 132°18'21515.0
2018-Feb-17 20:35N 33°38' E 136°31'9714.4
2018-Feb-17 13:50N 34°18' E 138°18'410.4
2018-Feb-17 13:26N 34°20' E 138°22'511.0
2018-Feb-17 12:59N 34°22' E 138°28'510.3
2018-Feb-17 12:28N 34°24' E 138°34'5 9.9
2018-Feb-17 12:00N 34°26' E 138°39'610.5
2018-Feb-17 11:28N 34°28' E 138°45'510.9
2018-Feb-17 11:00N 34°31' E 138°51'611.4
2018-Feb-17 10:30N 34°33' E 138°57'711.8
2018-Feb-17 09:56N 34°37' E 139°03'614.5
2018-Feb-17 09:30N 34°42' E 139°09'713.8
2018-Feb-17 09:00N 34°47' E 139°14'713.7
2018-Feb-17 08:29N 34°51' E 139°21'713.4
2018-Feb-17 07:59N 34°55' E 139°27'613.2
2018-Feb-17 07:30N 34°59' E 139°33'815.0
2018-Feb-17 07:01N 35°04' E 139°40'714.6
2018-Feb-17 06:30N 35°10' E 139°45'611.6
2018-Feb-17 06:01N 35°16' E 139°46'612.9
2018-Feb-17 05:30N 35°22' E 139°42'510.5
2018-Feb-17 05:00N 35°27' E 139°41'1 1.6
2018-Feb-17 04:29N 35°27' E 139°40'0 0.0
2018-Feb-17 03:59N 35°27' E 139°40'0 0.0
2018-Feb-17 03:29N 35°27' E 139°40'0 0.0
2018-Feb-17 02:59N 35°27' E 139°40'0 0.0
2018-Feb-17 02:29N 35°27' E 139°40'0 0.0
2018-Feb-17 01:59N 35°27' E 139°40'0 0.0
2018-Feb-17 01:29N 35°27' E 139°40'0 0.0
2018-Feb-17 00:59N 35°27' E 139°40'0 0.0
2018-Feb-17 00:29N 35°27' E 139°40'0 0.0
2018-Feb-16 23:59N 35°27' E 139°40'0 0.0
2018-Feb-16 23:29N 35°27' E 139°40'0 0.0
2018-Feb-16 22:59N 35°27' E 139°40'0 0.0
2018-Feb-16 22:26N 35°27' E 139°40'0 0.0
2018-Feb-16 21:59N 35°27' E 139°40'0 0.0
2018-Feb-16 21:29N 35°27' E 139°40'0 0.0
2018-Feb-16 20:59N 35°27' E 139°40'0 0.0
2018-Feb-16 20:29N 35°27' E 139°40'0 0.0
2018-Feb-16 19:59N 35°27' E 139°40'0 0.0
2018-Feb-16 19:29N 35°27' E 139°40'0 0.0
2018-Feb-16 18:59N 35°27' E 139°40'0 0.0
2018-Feb-16 18:29N 35°27' E 139°40'0 0.0
2018-Feb-16 17:59N 35°27' E 139°40'0 0.0
2018-Feb-16 17:29N 35°27' E 139°40'0 0.0
2018-Feb-16 16:59N 35°27' E 139°40'0 0.0
2018-Feb-16 16:29N 35°27' E 139°40'0 0.0
2018-Feb-16 15:59N 35°27' E 139°40'0 0.0
2018-Feb-16 15:29N 35°27' E 139°40'0 0.0
2018-Feb-16 14:59N 35°27' E 139°40'0 0.0
2018-Feb-16 14:29N 35°27' E 139°40'0 0.0
2018-Feb-16 13:59N 35°27' E 139°40'0 0.0
2018-Feb-16 13:29N 35°27' E 139°40'0 0.0
2018-Feb-16 12:59N 35°27' E 139°40'0 0.0
2018-Feb-16 12:29N 35°27' E 139°40'0 0.0
2018-Feb-16 11:59N 35°27' E 139°40'0 0.0
2018-Feb-16 11:29N 35°27' E 139°40'0 0.0
2018-Feb-16 10:59N 35°27' E 139°40'0 0.0
2018-Feb-16 10:29N 35°27' E 139°40'0 0.0
2018-Feb-16 09:59N 35°27' E 139°40'0 0.0
2018-Feb-16 09:29N 35°27' E 139°40'0 0.0
2018-Feb-16 09:01N 35°27' E 139°40'1 1.6
2018-Feb-16 08:30N 35°27' E 139°41'4 8.3
2018-Feb-16 08:00N 35°23' E 139°43'612.4
2018-Feb-16 07:30N 35°17' E 139°45'612.8
2018-Feb-16 07:00N 35°11' E 139°47'4 7.1
2018-Feb-16 06:30N 35°08' E 139°45'5 9.2
2018-Feb-16 06:00N 35°05' E 139°41'510.9
2018-Feb-16 05:30N 35°01' E 139°36'611.6
2018-Feb-16 05:01N 34°57' E 139°31'815.5
2018-Feb-16 04:30N 34°52' E 139°24'918.0
2018-Feb-16 03:59N 34°45' E 139°16'817.0
2018-Feb-16 03:30N 34°40' E 139°09'917.2
2018-Feb-16 03:00N 34°34' E 139°02'816.2
2018-Feb-16 02:30N 34°30' E 138°53'816.2
2018-Feb-16 02:00N 34°26' E 138°44'916.4
2018-Feb-16 01:28N 34°22' E 138°34'816.8
2018-Feb-16 01:00N 34°20' E 138°26'816.5
2018-Feb-16 00:30N 34°16' E 138°17'816.1
2018-Feb-16 00:00N 34°13' E 138°08'715.4
2018-Feb-15 23:30N 34°10' E 137°59'815.8
2018-Feb-15 23:00N 34°07' E 137°50'915.8
2018-Feb-15 22:27N 34°03' E 137°41'12513.8
2018-Feb-15 13:23N 33°36' E 135°14'616.3
2018-Feb-15 13:00N 33°41' E 135°09'816.4
2018-Feb-15 12:30N 33°47' E 135°03'816.3
2018-Feb-15 12:00N 33°54' E 134°58'816.1
2018-Feb-15 11:31N 34°02' E 134°58'816.0
2018-Feb-15 11:00N 34°10' E 134°58'612.9
2018-Feb-15 10:31N 34°16' E 134°58'815.0
2018-Feb-15 10:00N 34°23' E 135°01'815.8
2018-Feb-15 09:30N 34°29' E 135°08'815.5
2018-Feb-15 09:00N 34°34' E 135°15'713.2
2018-Feb-15 08:31N 34°41' E 135°15'1 2.7
2018-Feb-15 07:58N 34°42' E 135°16'0 0.0
2018-Feb-15 07:28N 34°42' E 135°16'0 0.0
2018-Feb-15 06:58N 34°42' E 135°16'0 0.0
2018-Feb-15 06:25N 34°42' E 135°16'0 0.0
2018-Feb-15 05:58N 34°42' E 135°16'0 0.0
2018-Feb-15 05:28N 34°42' E 135°16'0 0.0
2018-Feb-15 04:58N 34°42' E 135°16'0 0.0
2018-Feb-15 04:28N 34°42' E 135°16'0 0.0
2018-Feb-15 03:55N 34°42' E 135°16'0 0.0
2018-Feb-15 03:25N 34°42' E 135°16'0 0.0
2018-Feb-15 02:58N 34°42' E 135°16'0 0.0
2018-Feb-15 02:25N 34°42' E 135°16'0 0.0
2018-Feb-15 01:58N 34°42' E 135°16'0 0.0
2018-Feb-15 01:25N 34°42' E 135°16'0 0.0
2018-Feb-15 00:58N 34°42' E 135°16'0 0.0
2018-Feb-15 00:28N 34°42' E 135°16'0 0.0
2018-Feb-14 23:58N 34°42' E 135°16'0 0.0
2018-Feb-14 23:28N 34°42' E 135°16'0 0.0
2018-Feb-14 22:58N 34°42' E 135°16'0 0.0
2018-Feb-14 22:28N 34°42' E 135°16'0 0.0
2018-Feb-14 21:58N 34°42' E 135°16'0 0.0
2018-Feb-14 21:28N 34°42' E 135°16'0 0.0
2018-Feb-14 20:55N 34°42' E 135°16'0 0.0
2018-Feb-14 20:25N 34°42' E 135°16'0 0.0
2018-Feb-14 19:58N 34°42' E 135°16'0 0.0
2018-Feb-14 19:25N 34°42' E 135°16'0 0.0
2018-Feb-14 18:55N 34°42' E 135°16'0 0.0
2018-Feb-14 18:28N 34°42' E 135°16'0 0.0
2018-Feb-14 17:58N 34°42' E 135°16'0 0.0
2018-Feb-14 17:28N 34°42' E 135°16'0 0.0
2018-Feb-14 16:58N 34°42' E 135°16'0 0.0
2018-Feb-14 16:28N 34°42' E 135°16'0 0.0
2018-Feb-14 15:58N 34°42' E 135°16'0 0.0
2018-Feb-14 15:28N 34°42' E 135°16'0 0.0
2018-Feb-14 14:58N 34°42' E 135°16'0 0.0
2018-Feb-14 14:28N 34°42' E 135°16'0 0.0
2018-Feb-14 13:58N 34°42' E 135°16'0 0.0
2018-Feb-14 13:28N 34°42' E 135°16'0 0.0
2018-Feb-14 12:58N 34°42' E 135°16'0 0.0
2018-Feb-14 12:28N 34°42' E 135°16'0 0.0
2018-Feb-14 11:58N 34°42' E 135°16'0 0.0
2018-Feb-14 11:28N 34°42' E 135°16'0 0.0
2018-Feb-14 10:58N 34°42' E 135°16'0 0.0
2018-Feb-14 10:28N 34°42' E 135°16'0 0.0
2018-Feb-14 09:58N 34°42' E 135°16'0 0.0
2018-Feb-14 09:28N 34°42' E 135°16'0 0.0
2018-Feb-14 08:58N 34°42' E 135°16'0 0.0
2018-Feb-14 08:28N 34°42' E 135°16'0 0.0
2018-Feb-14 07:55N 34°42' E 135°16'0 0.0
2018-Feb-14 07:28N 34°42' E 135°16'0 0.0
2018-Feb-14 06:58N 34°42' E 135°16'0 0.0
2018-Feb-14 06:25N 34°42' E 135°16'0 0.0
2018-Feb-14 05:58N 34°42' E 135°16'0 0.0
2018-Feb-14 05:28N 34°42' E 135°16'0 0.0
2018-Feb-14 04:58N 34°42' E 135°16'0 0.0
2018-Feb-14 04:28N 34°42' E 135°16'0 0.0
2018-Feb-14 03:58N 34°42' E 135°16'0 0.0
2018-Feb-14 03:28N 34°42' E 135°16'0 0.0
2018-Feb-14 02:58N 34°42' E 135°16'0 0.0
2018-Feb-14 02:25N 34°42' E 135°16'0 0.0
2018-Feb-14 01:58N 34°42' E 135°16'0 0.0
2018-Feb-14 01:25N 34°42' E 135°16'0 0.0
2018-Feb-14 00:55N 34°42' E 135°16'0 0.0
2018-Feb-14 00:25N 34°42' E 135°16'0 0.0
2018-Feb-13 23:58N 34°42' E 135°16'0 0.0
2018-Feb-13 23:28N 34°42' E 135°16'0 0.0
2018-Feb-13 22:58N 34°42' E 135°16'0 0.0
2018-Feb-13 22:28N 34°42' E 135°16'0 0.0
2018-Feb-13 21:58N 34°42' E 135°16'0 0.0
2018-Feb-13 21:19N 34°42' E 135°16'0 0.0
2018-Feb-13 20:55N 34°42' E 135°16'0 0.0
2018-Feb-13 20:28N 34°42' E 135°16'0 0.0
2018-Feb-13 19:58N 34°42' E 135°16'0 0.0
2018-Feb-13 19:25N 34°42' E 135°16'0 0.0
2018-Feb-13 18:58N 34°42' E 135°16'0 0.0
2018-Feb-13 18:28N 34°42' E 135°16'0 0.0
2018-Feb-13 17:58N 34°42' E 135°16'0 0.0
2018-Feb-13 17:25N 34°42' E 135°16'0 0.0
2018-Feb-13 16:58N 34°42' E 135°16'0 0.0
2018-Feb-13 16:25N 34°42' E 135°16'0 0.0
2018-Feb-13 15:58N 34°42' E 135°16'0 0.0
2018-Feb-13 15:25N 34°42' E 135°16'0 0.0
2018-Feb-13 14:58N 34°42' E 135°16'0 0.0
2018-Feb-13 14:28N 34°42' E 135°16'0 0.0
2018-Feb-13 13:58N 34°42' E 135°16'0 0.0
2018-Feb-13 13:28N 34°42' E 135°16'0 0.0
2018-Feb-13 12:58N 34°42' E 135°16'0 0.0
2018-Feb-13 12:25N 34°42' E 135°16'0 0.0
2018-Feb-13 11:55N 34°42' E 135°16'0 0.0
2018-Feb-13 11:28N 34°42' E 135°16'0 0.0
2018-Feb-13 10:58N 34°42' E 135°16'0 0.0
2018-Feb-13 10:28N 34°42' E 135°16'0 0.0
2018-Feb-13 09:58N 34°42' E 135°16'0 0.0
2018-Feb-13 09:28N 34°42' E 135°16'0 0.0
2018-Feb-13 08:58N 34°42' E 135°16'0 0.0
2018-Feb-13 08:28N 34°42' E 135°16'0 0.0
2018-Feb-13 07:58N 34°42' E 135°16'0 0.0
2018-Feb-13 07:25N 34°42' E 135°16'0 0.0
2018-Feb-13 06:58N 34°42' E 135°16'0 0.0
2018-Feb-13 06:28N 34°42' E 135°16'0 0.0
2018-Feb-13 05:55N 34°42' E 135°16'0 0.0
2018-Feb-13 05:28N 34°42' E 135°16'0 0.0
2018-Feb-13 04:58N 34°42' E 135°16'0 0.0
2018-Feb-13 04:28N 34°42' E 135°16'0 0.0
2018-Feb-13 03:58N 34°42' E 135°16'0 0.0
2018-Feb-13 03:28N 34°42' E 135°16'0 0.0
2018-Feb-13 02:58N 34°42' E 135°16'0 0.0
2018-Feb-13 02:28N 34°42' E 135°16'0 0.0
2018-Feb-13 01:58N 34°42' E 135°16'0 0.0
2018-Feb-13 01:28N 34°42' E 135°16'0 0.0
2018-Feb-13 00:55N 34°42' E 135°16'0 0.0
2018-Feb-13 00:28N 34°42' E 135°16'0 0.0
2018-Feb-12 23:58N 34°42' E 135°16'0 0.0
2018-Feb-12 23:25N 34°42' E 135°16'0 0.0
2018-Feb-12 22:58N 34°42' E 135°16'0 0.0
2018-Feb-12 22:28N 34°42' E 135°16'0 0.0
2018-Feb-12 21:58N 34°42' E 135°16'0 0.0
2018-Feb-12 21:25N 34°42' E 135°16'0 0.0
2018-Feb-12 20:58N 34°42' E 135°16'0 0.0
2018-Feb-12 20:28N 34°42' E 135°16'0 0.0
2018-Feb-12 19:55N 34°42' E 135°16'0 0.0
2018-Feb-12 19:28N 34°42' E 135°16'0 0.0
2018-Feb-12 18:58N 34°42' E 135°16'0 0.0
2018-Feb-12 18:28N 34°42' E 135°16'0 0.0
2018-Feb-12 17:58N 34°42' E 135°16'0 0.0
2018-Feb-12 17:28N 34°42' E 135°16'0 0.0
2018-Feb-12 16:58N 34°42' E 135°16'0 0.0
2018-Feb-12 16:28N 34°42' E 135°16'0 0.0
2018-Feb-12 15:58N 34°42' E 135°16'0 0.0
2018-Feb-12 15:16N 34°42' E 135°16'0 0.0
2018-Feb-12 14:58N 34°42' E 135°16'0 0.0
2018-Feb-12 14:28N 34°42' E 135°16'0 0.0
2018-Feb-12 13:58N 34°42' E 135°16'0 0.0
2018-Feb-12 13:28N 34°42' E 135°16'0 0.0
2018-Feb-12 12:58N 34°42' E 135°16'0 0.0
2018-Feb-12 12:28N 34°42' E 135°16'0 0.0
2018-Feb-12 11:58N 34°42' E 135°16'0 0.0
2018-Feb-12 11:28N 34°42' E 135°16'0 0.0
2018-Feb-12 10:58N 34°42' E 135°16'0 0.0
2018-Feb-12 10:28N 34°42' E 135°16'0 0.0
2018-Feb-12 09:58N 34°42' E 135°16'0 0.0
2018-Feb-12 09:28N 34°42' E 135°16'0 0.0
2018-Feb-12 08:58N 34°42' E 135°16'0 0.0
2018-Feb-12 08:28N 34°42' E 135°16'0 0.0
2018-Feb-12 07:58N 34°42' E 135°16'0 0.0
2018-Feb-12 07:28N 34°42' E 135°16'0 0.0
2018-Feb-12 06:58N 34°42' E 135°16'0 0.0
2018-Feb-12 06:28N 34°42' E 135°16'0 0.0
2018-Feb-12 05:58N 34°42' E 135°16'0 0.0
2018-Feb-12 05:25N 34°42' E 135°16'0 0.0
2018-Feb-12 04:58N 34°42' E 135°16'0 0.0
2018-Feb-12 04:28N 34°42' E 135°16'0 0.0
2018-Feb-12 03:58N 34°42' E 135°16'0 0.2
2018-Feb-12 03:30N 34°42' E 135°16'2 3.8
2018-Feb-12 03:00N 34°40' E 135°15'4 8.1
2018-Feb-12 02:30N 34°36' E 135°17'4 8.5
2018-Feb-12 02:01N 34°32' E 135°15'611.3
2018-Feb-12 01:31N 34°28' E 135°10'714.7
2018-Feb-12 01:01N 34°23' E 135°04'714.3
2018-Feb-12 00:31N 34°17' E 134°59'713.8
2018-Feb-12 00:01N 34°10' E 135°00'611.1
2018-Feb-11 23:30N 34°05' E 134°58'713.8
2018-Feb-11 23:00N 33°58' E 134°55'713.8
2018-Feb-11 22:30N 33°52' E 134°53'1413.7
2018-Feb-11 21:30N 33°39' E 134°46'714.1
2018-Feb-11 21:00N 33°33' E 134°42'  

Dump ship's entire track history